Charter Quote
Worldwide +44-20-3874-8091 Call
Select Language Lang
SAFETY RELIABILITY EXPERIENCE

Sarsawa Airport (VISP) - Jet Charter Services

AIRPORT INFORMATION
ICAOVISP
LOCATIONSarsawa, India
FACILITY TYPEAIRPORT
Runway Length (ft) Width (ft) Surface Type Elevation (ft)
27/09 9000 150 CON 890.42623

At Paramount Business Jets you can hire chartered private jets to and from Sarsawa Airport with as little as 4 hours of notice. All flights booked via Paramount Business Jets are operated by certified direct air carriers that meet and exceed the FAA part 135 and 121 protocol or a foreign equivalent safety authority. Furthermore, Paramount Business Jets subscribes to ARGUS for their third party safety checks of operators, aircraft, and crews prior each and every flight to and from Sarsawa Airport and worldwide.

  • Quote a trip using Sarsawa Airport or call us 24/7 - 365 days a year at +44-20-3874-8091.
Questions? Call +44-20-3874-8091

METAR Weather Data at Sarsawa Airport, VISP

STATIONVISP
OBSERVEDSat Apr 13, 00:00 UTC
NOWThu Apr 25, 21:53 UTC
AGE309:53 hr ago
WINDENE at 3 mph
VISIBILITY5 miles
CONDITIONShaze
METARVISP 130000Z 06003KT 3200 HZ NSC 25/12 Q1008 NOSIG

Call us on +44-20-3874-8091 (24 Hours) to Hire a Private Jet or Get a Quick Quote.

Find Airports Near any Location

Processing
...